createdAt,value
2019-03-30T00:01:57.584Z,12.50
2019-03-30T00:04:26.790Z,14.17
2019-03-30T00:06:56.124Z,14.83
2019-03-30T00:09:25.429Z,14.00
2019-03-30T00:11:57.730Z,12.00
2019-03-30T00:14:25.030Z,11.30
2019-03-30T00:16:54.223Z,13.63
2019-03-30T00:19:34.468Z,11.87
2019-03-30T00:21:54.342Z,12.30
2019-03-30T00:24:23.545Z,12.10
2019-03-30T00:26:53.045Z,12.27
2019-03-30T00:29:22.368Z,12.13
2019-03-30T00:31:51.665Z,12.93
2019-03-30T00:34:21.612Z,12.05
2019-03-30T00:36:50.764Z,12.07
2019-03-30T00:39:20.043Z,12.27
2019-03-30T00:41:49.365Z,13.15
2019-03-30T00:44:18.621Z,11.40
2019-03-30T00:46:47.861Z,14.90
2019-03-30T00:49:17.073Z,14.63
2019-03-30T00:51:46.377Z,15.10
2019-03-30T00:54:15.666Z,13.05
2019-03-30T00:56:44.868Z,12.85
2019-03-30T00:59:13.463Z,13.85
2019-03-30T01:01:42.775Z,14.80
2019-03-30T01:04:12.055Z,16.15
2019-03-30T01:06:41.380Z,15.53
2019-03-30T01:09:10.236Z,16.07
2019-03-30T01:11:39.573Z,15.03
2019-03-30T01:14:08.878Z,13.40
2019-03-30T01:16:38.177Z,13.95
2019-03-30T01:19:06.929Z,12.05
2019-03-30T01:21:35.763Z,14.18
2019-03-30T01:24:05.033Z,13.25
2019-03-30T01:26:34.303Z,13.85
2019-03-30T01:29:03.921Z,13.20
2019-03-30T01:31:33.267Z,15.50
2019-03-30T01:34:02.463Z,11.90
2019-03-30T01:36:34.767Z,12.93
2019-03-30T01:39:05.145Z,11.38
2019-03-30T01:41:33.874Z,11.60
2019-03-30T01:44:03.663Z,11.33
2019-03-30T01:46:32.924Z,12.00
2019-03-30T01:49:02.205Z,12.15
2019-03-30T01:51:31.437Z,13.00
2019-03-30T01:54:00.742Z,15.38
2019-03-30T01:56:30.105Z,13.40
2019-03-30T01:58:59.540Z,12.58
2019-03-30T02:01:28.777Z,12.55
2019-03-30T02:03:57.328Z,13.45
2019-03-30T02:06:26.649Z,12.93
2019-03-30T02:08:55.902Z,13.75
2019-03-30T02:11:25.205Z,13.15
2019-03-30T02:13:54.493Z,13.28
2019-03-30T02:16:23.813Z,12.90
2019-03-30T02:18:53.160Z,12.88
2019-03-30T02:21:22.414Z,13.53
2019-03-30T02:23:52.465Z,11.85
2019-03-30T02:26:21.037Z,12.65
2019-03-30T02:28:50.314Z,14.18
2019-03-30T02:31:19.609Z,14.20
2019-03-30T02:33:48.198Z,12.47
2019-03-30T02:36:17.500Z,13.83
2019-03-30T02:38:46.743Z,13.88
2019-03-30T02:41:16.397Z,12.98
2019-03-30T02:43:45.834Z,14.05
2019-03-30T02:46:14.517Z,12.68
2019-03-30T02:48:43.843Z,15.43
2019-03-30T02:51:13.092Z,12.13
2019-03-30T02:53:42.409Z,15.20
2019-03-30T02:56:11.711Z,13.75
2019-03-30T02:58:41.024Z,13.83
2019-03-30T03:01:10.257Z,12.95
2019-03-30T03:03:39.495Z,12.75
2019-03-30T03:06:09.247Z,14.78
2019-03-30T03:08:37.858Z,13.65
2019-03-30T03:11:07.079Z,13.78
2019-03-30T03:13:36.400Z,14.35
2019-03-30T03:16:06.012Z,14.98
2019-03-30T03:18:35.611Z,15.13
2019-03-30T03:21:08.032Z,16.07
2019-03-30T03:23:35.822Z,16.55
2019-03-30T03:26:05.440Z,13.28
2019-03-30T03:28:34.009Z,14.07
2019-03-30T03:31:03.223Z,14.18
2019-03-30T03:33:32.507Z,15.03
2019-03-30T03:36:01.807Z,13.28
2019-03-30T03:38:31.203Z,12.33
2019-03-30T03:41:00.465Z,12.35
2019-03-30T03:43:29.710Z,12.95
2019-03-30T03:45:59.033Z,13.13
2019-03-30T03:48:28.243Z,12.13
2019-03-30T03:50:57.885Z,13.68
2019-03-30T03:53:27.156Z,13.70
2019-03-30T03:55:56.408Z,13.25
2019-03-30T03:58:26.893Z,12.68
2019-03-30T04:00:56.137Z,13.55
2019-03-30T04:03:25.479Z,13.53
2019-03-30T04:05:57.506Z,13.13
2019-03-30T04:08:26.875Z,13.90
2019-03-30T04:10:55.484Z,14.00
2019-03-30T04:13:25.690Z,14.10
2019-03-30T04:15:55.145Z,14.28
2019-03-30T04:18:24.736Z,13.45
2019-03-30T04:20:54.006Z,13.45
2019-03-30T04:23:23.261Z,14.00
2019-03-30T04:25:52.526Z,13.08
2019-03-30T04:28:21.818Z,13.25
2019-03-30T04:30:51.038Z,11.90
2019-03-30T04:33:19.631Z,14.23
2019-03-30T04:35:48.848Z,14.20
2019-03-30T04:38:18.237Z,14.28
2019-03-30T04:40:46.878Z,14.85
2019-03-30T04:43:15.655Z,14.75
2019-03-30T04:45:44.891Z,16.05
2019-03-30T04:48:14.212Z,16.20
2019-03-30T04:50:43.509Z,16.73
2019-03-30T04:53:12.105Z,13.90
2019-03-30T04:55:41.372Z,13.25
2019-03-30T04:58:10.762Z,14.18
2019-03-30T05:00:40.064Z,15.15
2019-03-30T05:03:09.441Z,14.58
2019-03-30T05:05:38.301Z,13.85
2019-03-30T05:08:07.514Z,14.95
2019-03-30T05:10:37.351Z,14.10
2019-03-30T05:13:07.141Z,13.13
2019-03-30T05:15:35.828Z,12.55
2019-03-30T05:18:04.508Z,13.55
2019-03-30T05:20:33.762Z,16.23
2019-03-30T05:23:02.426Z,14.35
2019-03-30T05:25:31.617Z,14.05
2019-03-30T05:28:00.861Z,12.20
2019-03-30T05:30:30.419Z,14.13
2019-03-30T05:33:06.030Z,14.25
2019-03-30T05:35:30.749Z,13.32
2019-03-30T05:38:01.439Z,12.28
2019-03-30T05:40:30.636Z,12.78
2019-03-30T05:42:59.944Z,13.05
2019-03-30T05:45:28.601Z,13.98
2019-03-30T05:47:57.924Z,14.20
2019-03-30T05:50:27.132Z,13.98
2019-03-30T05:52:56.392Z,12.00
2019-03-30T05:55:25.699Z,14.55
2019-03-30T05:57:55.237Z,10.45
2019-03-30T06:00:24.741Z,14.50
2019-03-30T06:02:53.965Z,14.65
2019-03-30T06:05:23.473Z,13.50
2019-03-30T06:07:52.699Z,14.30
2019-03-30T06:10:22.017Z,13.70
2019-03-30T06:12:51.298Z,14.25
2019-03-30T06:15:20.590Z,12.88
2019-03-30T06:17:49.783Z,13.40
2019-03-30T06:20:19.007Z,12.10
2019-03-30T06:22:47.836Z,12.87
2019-03-30T06:25:17.128Z,11.67
2019-03-30T06:27:46.329Z,12.43
2019-03-30T06:30:17.073Z,11.80
2019-03-30T06:32:46.399Z,12.50
2019-03-30T06:35:15.985Z,12.03
2019-03-30T06:37:45.180Z,13.33
2019-03-30T06:40:14.936Z,11.90
2019-03-30T06:42:44.216Z,11.30
2019-03-30T06:45:12.815Z,12.30
2019-03-30T06:47:42.149Z,11.83
2019-03-30T06:50:11.437Z,11.50
2019-03-30T06:52:46.033Z,11.10
2019-03-30T06:55:11.645Z,12.30
2019-03-30T06:57:42.324Z,11.93
2019-03-30T07:00:11.598Z,11.50
2019-03-30T07:02:40.894Z,10.53
2019-03-30T07:05:10.924Z,9.10
2019-03-30T07:07:39.578Z,10.10
2019-03-30T07:10:08.915Z,9.33
2019-03-30T07:12:41.328Z,10.17
2019-03-30T07:15:11.001Z,9.47
2019-03-30T07:17:47.184Z,9.37
2019-03-30T07:20:27.112Z,9.50
2019-03-30T07:23:10.694Z,8.33
2019-03-30T07:25:27.628Z,9.07
2019-03-30T07:27:57.133Z,7.90
2019-03-30T07:30:25.780Z,7.40
2019-03-30T07:32:55.250Z,6.23
2019-03-30T07:35:24.550Z,6.77
2019-03-30T07:37:54.133Z,5.70
2019-03-30T07:40:23.463Z,6.23
2019-03-30T07:42:52.862Z,6.20
2019-03-30T07:45:22.150Z,6.47
2019-03-30T07:47:51.430Z,5.87
2019-03-30T07:50:20.987Z,5.97
2019-03-30T07:52:49.613Z,5.97
2019-03-30T07:55:19.640Z,5.30
2019-03-30T07:57:49.201Z,5.53
2019-03-30T08:00:18.834Z,5.77
2019-03-30T08:02:48.190Z,6.07
2019-03-30T08:05:17.632Z,5.57
2019-03-30T08:07:47.510Z,6.13
2019-03-30T08:10:16.721Z,6.53
2019-03-30T08:12:46.074Z,4.97
2019-03-30T08:15:15.821Z,5.43
2019-03-30T08:17:45.180Z,6.60
2019-03-30T08:20:14.508Z,5.90
2019-03-30T08:22:43.812Z,5.77
2019-03-30T08:25:13.048Z,4.77
2019-03-30T08:27:42.341Z,5.20
2019-03-30T08:30:11.638Z,5.53
2019-03-30T08:32:40.948Z,6.07
2019-03-30T08:35:10.292Z,5.93
2019-03-30T08:37:39.520Z,6.50
2019-03-30T08:40:08.820Z,6.87
2019-03-30T08:42:38.519Z,6.23
2019-03-30T08:45:09.250Z,7.37
2019-03-30T08:47:38.574Z,8.27
2019-03-30T08:50:08.684Z,8.40
2019-03-30T08:52:38.366Z,7.67
2019-03-30T08:55:08.361Z,8.13
2019-03-30T08:57:37.711Z,7.60
2019-03-30T09:00:07.862Z,8.13
2019-03-30T09:02:37.312Z,8.83
2019-03-30T09:05:07.255Z,8.40
2019-03-30T09:07:36.524Z,8.17
2019-03-30T09:10:07.253Z,9.17
2019-03-30T09:12:36.911Z,8.53
2019-03-30T09:15:06.405Z,9.97
2019-03-30T09:17:37.512Z,8.73
2019-03-30T09:20:08.364Z,9.17
2019-03-30T09:22:37.660Z,9.33
2019-03-30T09:25:06.957Z,9.37
2019-03-30T09:27:36.535Z,9.77
2019-03-30T09:30:07.088Z,10.07
2019-03-30T09:32:36.393Z,10.20
2019-03-30T09:35:06.340Z,7.83
2019-03-30T09:37:35.832Z,10.17
2019-03-30T09:40:05.428Z,9.77
2019-03-30T09:42:35.800Z,9.90
2019-03-30T09:45:05.455Z,8.60
2019-03-30T09:47:53.661Z,8.93
2019-03-30T09:50:23.201Z,9.50
2019-03-30T09:52:52.576Z,9.90
2019-03-30T09:55:21.895Z,9.00
2019-03-30T09:57:51.222Z,8.37
2019-03-30T10:00:20.502Z,8.90
2019-03-30T10:02:49.779Z,10.00
2019-03-30T10:05:19.075Z,9.87
2019-03-30T10:07:48.456Z,9.30
2019-03-30T10:10:17.717Z,9.37
2019-03-30T10:12:46.988Z,10.50
2019-03-30T10:15:16.277Z,9.83
2019-03-30T10:17:45.509Z,10.67
2019-03-30T10:20:14.718Z,9.50
2019-03-30T10:22:43.993Z,8.97
2019-03-30T10:25:13.341Z,9.63
2019-03-30T10:27:42.580Z,9.60
2019-03-30T10:30:11.867Z,9.10
2019-03-30T10:32:41.091Z,10.00
2019-03-30T10:35:12.039Z,9.03
2019-03-30T10:37:41.339Z,9.80
2019-03-30T10:40:10.907Z,8.83
2019-03-30T10:42:40.255Z,8.13
2019-03-30T10:45:10.068Z,8.50
2019-03-30T10:47:41.320Z,10.00
2019-03-30T10:50:10.636Z,8.67
2019-03-30T10:52:40.096Z,8.10
2019-03-30T10:55:09.949Z,9.20
2019-03-30T10:57:39.221Z,8.50
2019-03-30T11:00:09.397Z,10.00
2019-03-30T11:02:39.261Z,9.67
2019-03-30T11:05:08.552Z,9.00
2019-03-30T11:07:37.961Z,8.87
2019-03-30T11:10:08.792Z,9.17
2019-03-30T11:12:38.044Z,8.17
2019-03-30T11:15:07.248Z,8.90
2019-03-30T11:17:36.451Z,8.13
2019-03-30T11:20:05.837Z,8.40
2019-03-30T11:22:35.126Z,9.00
2019-03-30T11:25:07.776Z,10.03
2019-03-30T11:27:35.353Z,7.83
2019-03-30T11:30:04.820Z,8.80
2019-03-30T11:32:34.116Z,9.40
2019-03-30T11:35:03.409Z,8.87
2019-03-30T11:37:32.726Z,8.87
2019-03-30T11:40:02.047Z,8.40
2019-03-30T11:42:31.308Z,7.57
2019-03-30T11:45:00.603Z,9.60
2019-03-30T11:47:29.940Z,8.23
2019-03-30T11:49:59.208Z,9.40
2019-03-30T11:52:28.491Z,9.67
2019-03-30T11:54:57.753Z,8.30
2019-03-30T11:57:27.030Z,8.90
2019-03-30T11:59:56.301Z,8.97
2019-03-30T12:02:28.191Z,8.40
2019-03-30T12:04:56.473Z,9.43
2019-03-30T12:07:25.827Z,10.20
2019-03-30T12:09:55.343Z,9.63
2019-03-30T12:12:24.534Z,8.90
2019-03-30T12:14:53.754Z,8.47
2019-03-30T12:17:23.060Z,8.90
2019-03-30T12:19:52.362Z,8.60
2019-03-30T12:22:21.638Z,9.03
2019-03-30T12:24:50.908Z,7.60
2019-03-30T12:27:20.111Z,8.27
2019-03-30T12:29:49.303Z,7.93
2019-03-30T12:32:18.503Z,8.87
2019-03-30T12:34:47.748Z,8.10
2019-03-30T12:37:17.615Z,8.87
2019-03-30T12:39:46.846Z,9.07
2019-03-30T12:42:16.083Z,7.53
2019-03-30T12:44:46.377Z,9.37
2019-03-30T12:47:15.935Z,8.23
2019-03-30T12:49:45.544Z,8.07
2019-03-30T12:52:15.148Z,7.30
2019-03-30T12:54:44.477Z,6.90
2019-03-30T12:57:13.804Z,8.50
2019-03-30T12:59:43.096Z,8.23
2019-03-30T13:02:12.841Z,8.57
2019-03-30T13:04:42.396Z,8.43
2019-03-30T13:07:11.701Z,8.60
2019-03-30T13:09:40.901Z,9.67
2019-03-30T13:12:10.138Z,8.97
2019-03-30T13:14:39.409Z,8.37
2019-03-30T13:17:08.711Z,8.30
2019-03-30T13:19:37.922Z,8.60
2019-03-30T13:22:07.244Z,8.57
2019-03-30T13:24:36.499Z,8.03
2019-03-30T13:27:05.847Z,9.60
2019-03-30T13:29:35.088Z,8.90
2019-03-30T13:32:04.788Z,7.67
2019-03-30T13:34:34.017Z,8.90
2019-03-30T13:37:13.986Z,8.33
2019-03-30T13:39:43.299Z,8.80
2019-03-30T13:42:12.637Z,8.33
2019-03-30T13:44:41.929Z,8.70
2019-03-30T13:47:11.158Z,8.33
2019-03-30T13:49:40.450Z,9.80
2019-03-30T13:52:09.755Z,6.83
2019-03-30T13:54:38.969Z,8.73
2019-03-30T13:57:08.265Z,7.70
2019-03-30T13:59:37.457Z,7.03
2019-03-30T14:02:06.678Z,5.93
2019-03-30T14:04:35.954Z,6.93
2019-03-30T14:07:05.272Z,7.20
2019-03-30T14:09:34.544Z,8.07
2019-03-30T14:12:03.861Z,7.83
2019-03-30T14:14:33.140Z,9.60
2019-03-30T14:17:02.454Z,7.80
2019-03-30T14:19:31.731Z,8.27
2019-03-30T14:22:00.952Z,8.00
2019-03-30T14:24:30.274Z,9.60
2019-03-30T14:26:59.502Z,7.83
2019-03-30T14:29:28.764Z,8.60
2019-03-30T14:31:58.065Z,8.40
2019-03-30T14:34:27.341Z,8.60
2019-03-30T14:36:58.120Z,8.57
2019-03-30T14:39:27.378Z,10.30
2019-03-30T14:41:56.695Z,8.70
2019-03-30T14:44:26.057Z,8.57
2019-03-30T14:46:55.309Z,8.50
2019-03-30T14:49:24.668Z,8.87
2019-03-30T14:51:54.197Z,9.33
2019-03-30T14:54:23.498Z,7.67
2019-03-30T14:56:53.371Z,10.33
2019-03-30T14:59:22.629Z,9.73
2019-03-30T15:01:52.740Z,9.43
2019-03-30T15:04:22.058Z,10.40
2019-03-30T15:06:51.673Z,8.97
2019-03-30T15:09:20.931Z,9.97
2019-03-30T15:11:50.248Z,9.10
2019-03-30T15:14:19.561Z,9.73
2019-03-30T15:16:48.810Z,9.00
2019-03-30T15:19:18.060Z,8.90
2019-03-30T15:21:47.260Z,10.00
2019-03-30T15:24:16.463Z,10.07
2019-03-30T15:26:53.902Z,9.70
2019-03-30T15:29:16.723Z,9.77
2019-03-30T15:31:45.976Z,10.40
2019-03-30T15:34:15.279Z,11.50
2019-03-30T15:36:44.475Z,9.73
2019-03-30T15:39:13.700Z,10.37
2019-03-30T15:41:42.903Z,9.57
2019-03-30T15:44:12.156Z,11.00
2019-03-30T15:46:41.441Z,11.00
2019-03-30T15:49:10.759Z,11.17
2019-03-30T15:51:40.224Z,10.60
2019-03-30T15:54:09.767Z,10.30
2019-03-30T15:56:38.964Z,10.50
2019-03-30T15:59:08.206Z,11.80
2019-03-30T16:01:37.720Z,10.30
2019-03-30T16:04:06.977Z,10.13
2019-03-30T16:06:36.257Z,9.30
2019-03-30T16:09:07.045Z,9.73
2019-03-30T16:11:36.235Z,10.83
2019-03-30T16:14:05.449Z,10.13
2019-03-30T16:16:34.644Z,12.23
2019-03-30T16:19:03.836Z,12.00
2019-03-30T16:21:33.160Z,11.37
2019-03-30T16:24:02.414Z,11.87
2019-03-30T16:26:41.841Z,12.00
2019-03-30T16:29:02.640Z,13.10
2019-03-30T16:31:31.920Z,11.43
2019-03-30T16:34:01.171Z,10.50
2019-03-30T16:36:30.375Z,11.10
2019-03-30T16:38:59.969Z,10.80
2019-03-30T16:41:29.178Z,12.00
2019-03-30T16:43:58.462Z,11.30
2019-03-30T16:46:27.762Z,12.00
2019-03-30T16:48:57.506Z,11.27
2019-03-30T16:51:26.865Z,10.23
2019-03-30T16:53:56.170Z,11.20
2019-03-30T16:56:25.426Z,11.43
2019-03-30T16:58:54.985Z,10.60
2019-03-30T17:01:24.250Z,10.37
2019-03-30T17:03:54.509Z,11.40
2019-03-30T17:06:24.110Z,9.20
2019-03-30T17:08:53.374Z,10.80
2019-03-30T17:11:22.727Z,10.67
2019-03-30T17:13:52.097Z,11.07
2019-03-30T17:16:21.432Z,11.50
2019-03-30T17:18:50.674Z,10.60
2019-03-30T17:21:20.021Z,11.40
2019-03-30T17:23:49.345Z,10.93
2019-03-30T17:26:18.580Z,10.60
2019-03-30T17:28:47.863Z,12.13
2019-03-30T17:31:17.240Z,10.50
2019-03-30T17:33:46.470Z,11.70
2019-03-30T17:36:15.769Z,12.57
2019-03-30T17:38:45.088Z,11.93
2019-03-30T17:41:14.375Z,11.30
2019-03-30T17:43:43.661Z,12.00
2019-03-30T17:46:12.886Z,11.60
2019-03-30T17:48:42.155Z,10.97
2019-03-30T17:51:11.361Z,11.90
2019-03-30T17:53:40.920Z,11.87
2019-03-30T17:56:10.160Z,13.43
2019-03-30T17:58:39.505Z,13.50
2019-03-30T18:01:08.778Z,12.40
2019-03-30T18:03:38.010Z,12.57
2019-03-30T18:06:07.289Z,12.70
2019-03-30T18:08:35.828Z,13.30
2019-03-30T18:11:05.192Z,11.50
2019-03-30T18:13:36.836Z,12.73
2019-03-30T18:16:05.524Z,12.67
2019-03-30T18:18:35.090Z,11.37
2019-03-30T18:21:04.330Z,11.97
2019-03-30T18:23:33.621Z,11.77
2019-03-30T18:26:02.983Z,10.70
2019-03-30T18:28:32.225Z,12.20
2019-03-30T18:31:01.444Z,13.90
2019-03-30T18:33:30.633Z,11.80
2019-03-30T18:35:59.971Z,11.37
2019-03-30T18:38:29.156Z,10.00
2019-03-30T18:40:58.367Z,11.50
2019-03-30T18:43:27.649Z,11.87
2019-03-30T18:45:56.858Z,11.40
2019-03-30T18:48:26.403Z,9.87
2019-03-30T18:50:55.618Z,12.13
2019-03-30T18:53:24.874Z,26.60
2019-03-30T18:55:54.104Z,40.27
2019-03-30T18:58:24.328Z,14.93
2019-03-30T19:00:53.636Z,9.03
2019-03-30T19:03:22.837Z,9.60
2019-03-30T19:05:52.151Z,10.80
2019-03-30T19:08:21.364Z,10.07
2019-03-30T19:10:50.569Z,11.27
2019-03-30T19:13:19.923Z,9.70
2019-03-30T19:15:49.245Z,9.87
2019-03-30T19:18:18.532Z,9.47
2019-03-30T19:20:48.131Z,10.40
2019-03-30T19:23:17.445Z,9.43
2019-03-30T19:25:46.770Z,9.70
2019-03-30T19:28:16.000Z,8.87
2019-03-30T19:30:45.195Z,7.93
2019-03-30T19:33:14.460Z,9.00
2019-03-30T19:35:43.937Z,8.73
2019-03-30T19:38:13.132Z,7.93
2019-03-30T19:40:42.336Z,9.20
2019-03-30T19:43:11.663Z,8.00
2019-03-30T19:45:40.951Z,9.17
2019-03-30T19:48:10.148Z,8.37
2019-03-30T19:50:39.444Z,7.40
2019-03-30T19:53:08.640Z,8.73
2019-03-30T19:55:37.938Z,8.40
2019-03-30T19:58:07.156Z,7.77
2019-03-30T20:00:38.683Z,8.43
2019-03-30T20:03:07.354Z,9.47
2019-03-30T20:05:36.673Z,9.40
2019-03-30T20:08:12.103Z,8.90
2019-03-30T20:10:36.987Z,10.53
2019-03-30T20:13:09.044Z,12.00
2019-03-30T20:15:37.233Z,15.97
2019-03-30T20:18:06.540Z,13.40
2019-03-30T20:20:36.433Z,9.20
2019-03-30T20:23:05.650Z,8.50
2019-03-30T20:25:34.862Z,8.63
2019-03-30T20:28:04.080Z,9.40
2019-03-30T20:30:33.280Z,8.67
2019-03-30T20:33:02.898Z,7.73
2019-03-30T20:35:32.071Z,8.93
2019-03-30T20:38:01.293Z,9.27
2019-03-30T20:40:30.531Z,8.83
2019-03-30T20:42:59.830Z,9.03
2019-03-30T20:45:29.218Z,8.77
2019-03-30T20:48:00.252Z,11.20
2019-03-30T20:50:29.497Z,10.97
2019-03-30T20:52:58.795Z,11.10
2019-03-30T20:55:28.094Z,9.87
2019-03-30T20:57:57.438Z,8.53
2019-03-30T21:00:26.825Z,8.20
2019-03-30T21:02:56.020Z,8.83
2019-03-30T21:05:25.706Z,9.30
2019-03-30T21:09:52.449Z,9.70
2019-03-30T21:12:21.848Z,9.70
2019-03-30T21:14:51.128Z,8.53
2019-03-30T21:17:20.534Z,10.10
2019-03-30T21:19:50.324Z,8.50
2019-03-30T21:22:19.627Z,8.63
2019-03-30T21:24:48.928Z,10.07
2019-03-30T21:27:18.261Z,10.03
2019-03-30T21:29:54.576Z,9.50
2019-03-30T21:32:18.507Z,8.50
2019-03-30T21:34:47.784Z,9.17
2019-03-30T21:37:17.101Z,8.60
2019-03-30T21:39:46.444Z,9.53
2019-03-30T21:42:15.661Z,10.13
2019-03-30T21:44:44.921Z,9.13
2019-03-30T21:47:14.194Z,10.90
2019-03-30T21:49:43.542Z,11.57
2019-03-30T21:52:13.158Z,10.53
2019-03-30T21:54:42.403Z,10.53
2019-03-30T21:57:11.861Z,11.30
2019-03-30T21:59:41.141Z,10.13
2019-03-30T22:02:10.372Z,9.03
2019-03-30T22:04:39.613Z,9.40
2019-03-30T22:07:09.238Z,9.90
2019-03-30T22:09:38.587Z,10.73
2019-03-30T22:12:07.850Z,10.77
2019-03-30T22:14:37.134Z,11.47
2019-03-30T22:17:06.424Z,10.70
2019-03-30T22:19:35.639Z,11.63
2019-03-30T22:22:04.830Z,10.97
2019-03-30T22:24:34.117Z,11.10
2019-03-30T22:27:03.400Z,12.63
2019-03-30T22:29:32.688Z,11.57
2019-03-30T22:32:01.885Z,12.20
2019-03-30T22:34:31.473Z,9.60
2019-03-30T22:37:00.663Z,10.47
2019-03-30T22:39:29.878Z,10.30
2019-03-30T22:41:59.424Z,11.23
2019-03-30T22:44:28.655Z,10.83
2019-03-30T22:46:58.333Z,10.20
2019-03-30T22:49:27.546Z,10.07
2019-03-30T22:51:56.745Z,11.10
2019-03-30T22:54:26.080Z,10.97
2019-03-30T22:56:55.305Z,10.37
2019-03-30T22:59:24.539Z,9.70
2019-03-30T23:01:53.815Z,12.73
2019-03-30T23:04:23.110Z,10.17
2019-03-30T23:06:52.405Z,12.60
2019-03-30T23:09:21.628Z,14.93
2019-03-30T23:11:50.976Z,13.70
2019-03-30T23:14:20.204Z,13.27
2019-03-30T23:16:49.929Z,14.27
2019-03-30T23:19:19.242Z,12.07
2019-03-30T23:21:48.537Z,10.20
2019-03-30T23:24:17.740Z,11.67
2019-03-30T23:26:46.922Z,11.23
2019-03-30T23:29:16.126Z,10.53
2019-03-30T23:31:45.317Z,11.10
2019-03-30T23:34:14.536Z,11.67
2019-03-30T23:36:43.795Z,10.90
2019-03-30T23:39:12.994Z,10.33
2019-03-30T23:41:42.310Z,11.20
2019-03-30T23:44:11.596Z,11.60
2019-03-30T23:46:40.885Z,10.80
2019-03-30T23:49:10.095Z,12.10
2019-03-30T23:51:39.375Z,11.73
2019-03-30T23:54:11.794Z,11.13
2019-03-30T23:56:41.057Z,11.37
2019-03-30T23:59:10.257Z,11.43
